createdAt,value
2023-01-07T00:01:44.048Z,100098.41
2023-01-07T00:04:16.452Z,100099.00
2023-01-07T00:06:45.733Z,100094.38
2023-01-07T00:09:16.887Z,100091.14
2023-01-07T00:11:45.497Z,100086.34
2023-01-07T00:14:14.991Z,100087.98
2023-01-07T00:16:43.711Z,100085.11
2023-01-07T00:19:16.346Z,100087.27
2023-01-07T00:21:49.323Z,100084.37
2023-01-07T00:24:18.577Z,100082.17
2023-01-07T00:26:47.529Z,100080.66
2023-01-07T00:29:17.163Z,100075.69
2023-01-07T00:31:45.574Z,100072.25
2023-01-07T00:34:14.381Z,100072.48
2023-01-07T00:36:44.998Z,100072.41
2023-01-07T00:39:21.587Z,100078.73
2023-01-07T00:42:09.051Z,100084.09
2023-01-07T00:44:38.549Z,100086.46
2023-01-07T00:47:06.828Z,100087.05
2023-01-07T00:49:34.991Z,100091.98
2023-01-07T00:52:03.226Z,100095.86
2023-01-07T00:54:34.366Z,100097.61
2023-01-07T00:57:02.543Z,100100.78
2023-01-07T00:59:31.566Z,100099.40
2023-01-07T01:02:00.424Z,100101.96
2023-01-07T01:04:28.720Z,100101.10
2023-01-07T01:06:56.999Z,100100.46
2023-01-07T01:09:26.696Z,100097.55
2023-01-07T01:11:54.855Z,100096.17
2023-01-07T01:14:23.094Z,100097.05
2023-01-07T01:16:51.368Z,100102.33
2023-01-07T01:19:22.347Z,100095.23
2023-01-07T01:21:50.515Z,100096.48
2023-01-07T01:24:19.406Z,100092.15
2023-01-07T01:26:47.541Z,100092.36
2023-01-07T01:29:15.747Z,100092.40
2023-01-07T01:31:44.015Z,100088.13
2023-01-07T01:34:12.802Z,100082.80
2023-01-07T01:36:43.530Z,100083.89
2023-01-07T01:39:11.872Z,100086.56
2023-01-07T01:41:40.616Z,100088.55
2023-01-07T01:44:47.724Z,100090.20
2023-01-07T01:47:34.038Z,100091.69
2023-01-07T01:50:13.869Z,100094.36
2023-01-07T01:52:59.928Z,100097.41
2023-01-07T01:55:40.041Z,100099.55
2023-01-07T01:58:13.694Z,100096.41
2023-01-07T02:00:43.099Z,100101.45
2023-01-07T02:03:15.461Z,100100.56
2023-01-07T02:05:45.999Z,100096.38
2023-01-07T02:08:26.695Z,100094.62
2023-01-07T02:11:16.974Z,100096.49
2023-01-07T02:13:54.538Z,100091.41
2023-01-07T02:16:22.830Z,100087.88
2023-01-07T02:19:29.182Z,100091.37
2023-01-07T02:22:18.176Z,100088.61
2023-01-07T02:25:17.840Z,100090.55
2023-01-07T02:28:18.442Z,100086.80
2023-01-07T02:31:18.542Z,100086.52
2023-01-07T02:33:52.904Z,100080.51
2023-01-07T02:36:52.504Z,100081.71
2023-01-07T02:39:42.206Z,100076.70
2023-01-07T02:42:49.549Z,100081.74
2023-01-07T02:45:29.907Z,100081.21
2023-01-07T02:48:02.550Z,100080.54
2023-01-07T02:50:31.026Z,100080.57
2023-01-07T02:53:01.559Z,100081.13
2023-01-07T02:56:08.212Z,100076.98
2023-01-07T02:58:52.071Z,100075.30
2023-01-07T03:01:23.857Z,100077.77
2023-01-07T03:04:04.116Z,100076.56
2023-01-07T03:06:32.427Z,100077.03
2023-01-07T03:09:09.186Z,100074.34
2023-01-07T03:11:58.345Z,100070.25
2023-01-07T03:15:09.516Z,100070.36
2023-01-07T03:17:49.231Z,100072.54
2023-01-07T03:20:22.348Z,100072.70
2023-01-07T03:22:52.534Z,100072.17
2023-01-07T03:25:26.693Z,100073.39
2023-01-07T03:27:57.509Z,100074.92
2023-01-07T03:30:26.110Z,100077.00
2023-01-07T03:33:01.569Z,100072.98
2023-01-07T03:35:32.519Z,100072.65
2023-01-07T03:38:03.638Z,100071.96
2023-01-07T03:40:32.332Z,100067.27
2023-01-07T03:43:03.118Z,100065.55
2023-01-07T03:45:31.563Z,100064.39
2023-01-07T03:48:00.291Z,100062.51
2023-01-07T03:50:28.392Z,100060.50
2023-01-07T03:52:56.518Z,100057.76
2023-01-07T03:55:24.843Z,100054.48
2023-01-07T03:57:53.030Z,100051.91
2023-01-07T04:00:22.907Z,100043.92
2023-01-07T04:02:51.089Z,100044.46
2023-01-07T04:05:19.389Z,100036.52
2023-01-07T04:07:47.530Z,100034.02
2023-01-07T04:10:15.763Z,100034.45
2023-01-07T04:12:44.293Z,100034.03
2023-01-07T04:15:12.582Z,100034.97
2023-01-07T04:17:41.177Z,100033.83
2023-01-07T04:20:11.182Z,100033.75
2023-01-07T04:22:39.277Z,100030.34
2023-01-07T04:25:07.874Z,100029.39
2023-01-07T04:27:39.655Z,100028.91
2023-01-07T04:30:10.785Z,100022.52
2023-01-07T04:32:39.375Z,100024.98
2023-01-07T04:35:07.874Z,100024.67
2023-01-07T04:37:36.131Z,100024.17
2023-01-07T04:40:05.320Z,100030.82
2023-01-07T04:42:33.578Z,100034.32
2023-01-07T04:45:07.564Z,100035.73
2023-01-07T04:47:35.762Z,100033.48
2023-01-07T04:50:05.104Z,100033.14
2023-01-07T04:52:33.503Z,100036.40
2023-01-07T04:55:05.379Z,100037.77
2023-01-07T04:57:33.736Z,100039.99
2023-01-07T05:00:01.894Z,100043.56
2023-01-07T05:02:30.809Z,100043.17
2023-01-07T05:04:59.470Z,100042.75
2023-01-07T05:07:29.966Z,100043.08
2023-01-07T05:09:58.306Z,100042.15
2023-01-07T05:12:26.501Z,100043.36
2023-01-07T05:14:54.769Z,100044.23
2023-01-07T05:17:23.441Z,100045.64
2023-01-07T05:19:51.653Z,100047.52
2023-01-07T05:22:21.497Z,100044.19
2023-01-07T05:24:49.777Z,100040.33
2023-01-07T05:27:20.006Z,100041.00
2023-01-07T05:29:48.212Z,100040.61
2023-01-07T05:32:16.495Z,100041.98
2023-01-07T05:34:44.642Z,100034.16
2023-01-07T05:37:15.488Z,100036.09
2023-01-07T05:39:43.720Z,100035.92
2023-01-07T05:42:11.857Z,100040.29
2023-01-07T05:44:40.243Z,100036.30
2023-01-07T05:47:08.700Z,100035.27
2023-01-07T05:49:37.880Z,100036.30
2023-01-07T05:52:06.115Z,100030.75
2023-01-07T05:54:37.808Z,100036.16
2023-01-07T05:57:06.047Z,100040.48
2023-01-07T05:59:34.963Z,100040.52
2023-01-07T06:02:03.141Z,100043.96
2023-01-07T06:04:34.576Z,100041.84
2023-01-07T06:07:02.842Z,100038.16
2023-01-07T06:09:31.017Z,100042.65
2023-01-07T06:11:59.656Z,100042.26
2023-01-07T06:14:30.230Z,100041.55
2023-01-07T06:17:01.794Z,100039.79
2023-01-07T06:19:30.093Z,100041.52
2023-01-07T06:21:58.700Z,100042.02
2023-01-07T06:24:27.017Z,100041.65
2023-01-07T06:26:55.573Z,100040.59
2023-01-07T06:29:24.279Z,100036.08
2023-01-07T06:31:52.503Z,100039.19
2023-01-07T06:34:23.710Z,100038.14
2023-01-07T06:36:51.830Z,100034.59
2023-01-07T06:39:20.450Z,100036.98
2023-01-07T06:41:49.712Z,100033.02
2023-01-07T06:44:18.049Z,100028.11
2023-01-07T06:46:46.437Z,100034.56
2023-01-07T06:49:15.119Z,100038.59
2023-01-07T06:51:43.456Z,100042.08
2023-01-07T06:54:11.957Z,100044.02
2023-01-07T06:56:40.130Z,100043.83
2023-01-07T06:59:08.354Z,100044.34
2023-01-07T07:01:39.052Z,100044.87
2023-01-07T07:04:07.651Z,100042.98
2023-01-07T07:06:36.067Z,100046.16
2023-01-07T07:09:04.369Z,100051.07
2023-01-07T07:11:32.802Z,100054.38
2023-01-07T07:14:01.247Z,100053.70
2023-01-07T07:16:31.843Z,100057.73
2023-01-07T07:19:00.747Z,100053.42
2023-01-07T07:21:28.840Z,100056.20
2023-01-07T07:23:57.087Z,100058.96
2023-01-07T07:26:25.910Z,100056.86
2023-01-07T07:28:54.169Z,100054.60
2023-01-07T07:31:22.365Z,100051.10
2023-01-07T07:33:50.602Z,100047.61
2023-01-07T07:36:19.169Z,100046.38
2023-01-07T07:38:47.360Z,100048.08
2023-01-07T07:41:15.620Z,100047.40
2023-01-07T07:43:43.891Z,100047.91
2023-01-07T07:46:12.246Z,100050.84
2023-01-07T07:48:40.528Z,100051.70
2023-01-07T07:51:08.698Z,100051.01
2023-01-07T07:53:36.813Z,100053.95
2023-01-07T07:56:08.572Z,100056.19
2023-01-07T07:58:36.826Z,100055.80
2023-01-07T08:01:05.411Z,100059.41
2023-01-07T08:03:33.823Z,100064.98
2023-01-07T08:06:04.275Z,100062.35
2023-01-07T08:08:33.400Z,100063.27
2023-01-07T08:11:04.039Z,100064.68
2023-01-07T08:13:32.811Z,100063.30
2023-01-07T08:16:01.585Z,100062.07
2023-01-07T08:18:30.298Z,100064.11
2023-01-07T08:20:59.382Z,100059.02
2023-01-07T08:23:28.723Z,100058.91
2023-01-07T08:26:00.866Z,100056.55
2023-01-07T08:28:30.695Z,100049.98
2023-01-07T08:31:07.364Z,100045.13
2023-01-07T08:33:38.702Z,100046.05
2023-01-07T08:36:22.055Z,100044.03
2023-01-07T08:38:55.284Z,100042.36
2023-01-07T08:41:25.492Z,100041.00
2023-01-07T08:43:54.156Z,100041.49
2023-01-07T08:46:22.798Z,100037.52
2023-01-07T08:48:51.315Z,100034.55
2023-01-07T08:51:19.778Z,100033.42
2023-01-07T08:53:48.078Z,100037.92
2023-01-07T08:56:16.232Z,100033.88
2023-01-07T08:58:51.383Z,100031.19
2023-01-07T09:01:20.000Z,100034.89
2023-01-07T09:03:48.343Z,100030.03
2023-01-07T09:06:16.607Z,100029.04
2023-01-07T09:08:44.771Z,100029.64
2023-01-07T09:11:12.902Z,100029.58
2023-01-07T09:13:41.041Z,100030.02
2023-01-07T09:16:09.365Z,100028.77
2023-01-07T09:18:38.005Z,100026.08
2023-01-07T09:21:06.773Z,100031.38
2023-01-07T09:23:35.095Z,100034.27
2023-01-07T09:26:03.663Z,100032.64
2023-01-07T09:28:31.873Z,100030.23
2023-01-07T09:31:01.109Z,100025.21
2023-01-07T09:33:29.406Z,100024.55
2023-01-07T09:35:58.115Z,100024.39
2023-01-07T09:38:26.692Z,100023.91
2023-01-07T09:40:55.815Z,100021.42
2023-01-07T09:44:00.204Z,100020.36
2023-01-07T09:46:31.532Z,100021.03
2023-01-07T09:49:04.139Z,100017.54
2023-01-07T09:51:40.174Z,100017.52
2023-01-07T09:54:27.929Z,100016.65
2023-01-07T09:56:56.342Z,100010.98
2023-01-07T09:59:24.860Z,100006.83
2023-01-07T10:02:38.811Z,100005.33
2023-01-07T10:05:44.927Z,100002.13
2023-01-07T10:08:29.466Z,99999.27
2023-01-07T10:11:09.271Z,99995.98
2023-01-07T10:13:55.580Z,99994.54
2023-01-07T10:16:34.299Z,99989.23
2023-01-07T10:19:21.687Z,99988.51
2023-01-07T10:22:02.760Z,99990.91
2023-01-07T10:24:45.826Z,99989.48
2023-01-07T10:27:18.704Z,99981.22
2023-01-07T10:29:53.247Z,99978.36
2023-01-07T10:32:25.745Z,99979.15
2023-01-07T10:34:57.020Z,99974.33
2023-01-07T10:37:31.336Z,99973.33
2023-01-07T10:40:18.449Z,99973.35
2023-01-07T10:43:11.681Z,99971.77
2023-01-07T10:46:21.489Z,99969.84
2023-01-07T10:49:20.084Z,99968.52
2023-01-07T10:52:09.777Z,99963.33
2023-01-07T10:55:06.562Z,99964.30
2023-01-07T10:57:34.780Z,99965.08
2023-01-07T11:00:06.773Z,99962.10
2023-01-07T11:02:35.266Z,99966.71
2023-01-07T11:05:03.771Z,99965.80
2023-01-07T11:07:44.059Z,99960.30
2023-01-07T11:10:21.451Z,99961.16
2023-01-07T11:12:54.415Z,99959.57
2023-01-07T11:15:24.556Z,99957.30
2023-01-07T11:17:56.456Z,99951.34
2023-01-07T11:20:43.854Z,99951.23
2023-01-07T11:23:32.211Z,99950.85
2023-01-07T11:26:15.644Z,99942.54
2023-01-07T11:28:56.579Z,99938.88
2023-01-07T11:31:46.811Z,99935.30
2023-01-07T11:34:28.627Z,99931.08
2023-01-07T11:36:57.276Z,99928.05
2023-01-07T11:39:28.045Z,99923.80
2023-01-07T11:42:33.647Z,99922.58
2023-01-07T11:45:16.350Z,99921.17
2023-01-07T11:48:05.587Z,99915.53
2023-01-07T11:50:37.613Z,99911.52
2023-01-07T11:53:11.717Z,99908.24
2023-01-07T11:55:40.383Z,99903.63
2023-01-07T11:58:28.411Z,99900.23
2023-01-07T12:01:07.629Z,99897.09
2023-01-07T12:03:45.221Z,99896.49
2023-01-07T12:06:25.089Z,99898.04
2023-01-07T12:09:22.378Z,99898.03
2023-01-07T12:11:54.008Z,99896.76
2023-01-07T12:14:29.699Z,99895.01
2023-01-07T12:17:11.153Z,99892.64
2023-01-07T12:19:59.160Z,99886.20
2023-01-07T12:22:39.647Z,99882.45
2023-01-07T12:25:39.543Z,99877.98
2023-01-07T12:28:18.141Z,99873.66
2023-01-07T12:31:13.381Z,99870.52
2023-01-07T12:34:19.545Z,99867.85
2023-01-07T12:37:23.031Z,99862.54
2023-01-07T12:39:58.715Z,99860.93
2023-01-07T12:42:30.332Z,99860.02
2023-01-07T12:45:04.756Z,99858.39
2023-01-07T12:47:37.873Z,99856.33
2023-01-07T12:50:28.566Z,99860.20
2023-01-07T12:53:03.537Z,99859.88
2023-01-07T12:55:38.166Z,99857.00
2023-01-07T12:58:25.219Z,99856.52
2023-01-07T13:00:54.047Z,99856.04
2023-01-07T13:04:01.916Z,99856.18
2023-01-07T13:06:46.975Z,99853.60
2023-01-07T13:09:39.319Z,99851.02
2023-01-07T13:12:41.612Z,99849.05
2023-01-07T13:15:33.921Z,99845.77
2023-01-07T13:18:16.160Z,99848.90
2023-01-07T13:20:47.385Z,99846.80
2023-01-07T13:23:26.612Z,99850.92
2023-01-07T13:26:22.892Z,99847.92
2023-01-07T13:29:21.256Z,99848.88
2023-01-07T13:32:10.789Z,99849.66
2023-01-07T13:34:57.488Z,99846.39
2023-01-07T13:37:45.985Z,99847.76
2023-01-07T13:40:51.766Z,99843.79
2023-01-07T13:44:32.624Z,99842.95
2023-01-07T13:47:04.125Z,99839.13
2023-01-07T13:49:34.477Z,99834.89
2023-01-07T13:52:21.383Z,99835.08
2023-01-07T13:54:49.619Z,99836.61
2023-01-07T13:57:38.769Z,99835.27
2023-01-07T14:00:44.044Z,99833.33
2023-01-07T14:03:47.079Z,99829.96
2023-01-07T14:06:22.017Z,99830.08
2023-01-07T14:08:52.542Z,99830.00
2023-01-07T14:11:29.981Z,99826.46
2023-01-07T14:14:10.730Z,99819.33
2023-01-07T14:17:00.215Z,99819.95
2023-01-07T14:19:34.738Z,99815.05
2023-01-07T14:22:29.022Z,99814.16
2023-01-07T14:25:12.917Z,99813.60
2023-01-07T14:27:50.233Z,99809.88
2023-01-07T14:30:23.095Z,99806.52
2023-01-07T14:33:01.751Z,99802.13
2023-01-07T14:35:36.137Z,99799.47
2023-01-07T14:38:29.609Z,99799.23
2023-01-07T14:41:07.761Z,99794.19
2023-01-07T14:43:46.118Z,99792.98
2023-01-07T14:46:23.781Z,99790.73
2023-01-07T14:49:04.198Z,99790.85
2023-01-07T14:51:41.304Z,99789.94
2023-01-07T14:54:28.480Z,99787.09
2023-01-07T14:57:29.577Z,99784.37
2023-01-07T15:00:03.937Z,99781.23
2023-01-07T15:02:51.171Z,99780.33
2023-01-07T15:05:47.589Z,99773.73
2023-01-07T15:08:39.855Z,99776.58
2023-01-07T15:11:35.145Z,99770.36
2023-01-07T15:14:56.211Z,99773.58
2023-01-07T15:17:24.798Z,99778.66
2023-01-07T15:19:54.176Z,99777.94
2023-01-07T15:22:57.649Z,99774.58
2023-01-07T15:26:07.895Z,99776.84
2023-01-07T15:28:46.127Z,99772.11
2023-01-07T15:31:23.071Z,99766.52
2023-01-07T15:33:57.531Z,99764.42
2023-01-07T15:36:26.230Z,99763.15
2023-01-07T15:38:57.492Z,99760.12
2023-01-07T15:41:33.852Z,99757.61
2023-01-07T15:44:14.510Z,99756.86
2023-01-07T15:46:42.990Z,99759.77
2023-01-07T15:49:11.501Z,99759.68
2023-01-07T15:51:45.252Z,99758.53
2023-01-07T15:54:35.131Z,99759.17
2023-01-07T15:57:24.329Z,99755.86
2023-01-07T15:59:53.940Z,99750.14
2023-01-07T16:02:33.255Z,99756.02
2023-01-07T16:05:03.955Z,99755.52
2023-01-07T16:07:56.817Z,99752.38
2023-01-07T16:10:26.836Z,99752.09
2023-01-07T16:12:58.061Z,99752.36
2023-01-07T16:15:38.109Z,99750.23
2023-01-07T16:18:09.736Z,99755.10
2023-01-07T16:20:49.349Z,99753.63
2023-01-07T16:23:27.667Z,99751.43
2023-01-07T16:26:14.936Z,99754.44
2023-01-07T16:28:49.030Z,99751.26
2023-01-07T16:31:21.804Z,99748.08
2023-01-07T16:33:54.616Z,99742.15
2023-01-07T16:36:27.345Z,99746.26
2023-01-07T16:39:02.188Z,99747.73
2023-01-07T16:41:31.588Z,99749.76
2023-01-07T16:44:00.823Z,99748.25
2023-01-07T16:46:29.081Z,99747.69
2023-01-07T16:49:20.203Z,99746.70
2023-01-07T16:51:56.018Z,99747.58
2023-01-07T16:54:29.580Z,99740.52
2023-01-07T16:57:00.653Z,99744.85
2023-01-07T16:59:32.744Z,99748.98
2023-01-07T17:02:13.236Z,99745.48
2023-01-07T17:04:41.647Z,99741.45
2023-01-07T17:07:24.097Z,99741.00
2023-01-07T17:09:55.434Z,99738.98
2023-01-07T17:12:39.981Z,99740.14
2023-01-07T17:15:39.521Z,99735.28
2023-01-07T17:18:11.482Z,99735.84
2023-01-07T17:20:51.695Z,99741.83
2023-01-07T17:23:26.414Z,99739.70
2023-01-07T17:26:02.815Z,99736.88
2023-01-07T17:28:37.705Z,99741.75
2023-01-07T17:31:07.261Z,99739.45
2023-01-07T17:33:37.391Z,99737.30
2023-01-07T17:36:06.230Z,99734.85
2023-01-07T17:38:35.659Z,99735.77
2023-01-07T17:41:12.563Z,99732.48
2023-01-07T17:43:42.367Z,99734.40
2023-01-07T17:49:20.716Z,99725.36
2023-01-07T17:51:49.806Z,99719.90
2023-01-07T17:54:24.171Z,99720.15
2023-01-07T17:56:53.051Z,99723.51
2023-01-07T17:59:23.910Z,99727.21
2023-01-07T18:01:55.411Z,99729.16
2023-01-07T18:04:24.467Z,99732.77
2023-01-07T18:06:53.971Z,99727.21
2023-01-07T18:09:22.136Z,99728.38
2023-01-07T18:12:08.899Z,99726.19
2023-01-07T18:14:37.329Z,99715.95
2023-01-07T18:17:07.605Z,99712.27
2023-01-07T18:19:36.434Z,99711.45
2023-01-07T18:22:04.813Z,99709.75
2023-01-07T18:24:33.071Z,99709.91
2023-01-07T18:27:01.473Z,99706.11
2023-01-07T18:29:29.703Z,99708.89
2023-01-07T18:31:58.377Z,99702.92
2023-01-07T18:34:26.656Z,99705.46
2023-01-07T18:36:55.021Z,99709.50
2023-01-07T18:39:23.887Z,99706.48
2023-01-07T18:41:54.252Z,99708.05
2023-01-07T18:44:24.442Z,99708.03
2023-01-07T18:46:53.431Z,99706.86
2023-01-07T18:49:22.481Z,99697.73
2023-01-07T18:51:50.778Z,99693.61
2023-01-07T18:54:19.744Z,99693.24
2023-01-07T18:56:48.110Z,99695.27
2023-01-07T18:59:16.915Z,99694.89
2023-01-07T19:01:45.256Z,99698.73
2023-01-07T19:04:14.796Z,99696.58
2023-01-07T19:06:43.128Z,99692.30
2023-01-07T19:09:11.434Z,99689.33
2023-01-07T19:11:40.295Z,99693.48
2023-01-07T19:14:11.772Z,99685.73
2023-01-07T19:16:40.537Z,99689.23
2023-01-07T19:19:09.659Z,99688.14
2023-01-07T19:21:38.421Z,99684.73
2023-01-07T19:24:07.086Z,99682.04
2023-01-07T19:26:35.491Z,99680.91
2023-01-07T19:29:04.243Z,99680.92
2023-01-07T19:31:32.728Z,99678.70
2023-01-07T19:34:04.322Z,99679.95
2023-01-07T19:36:32.449Z,99676.16
2023-01-07T19:39:01.225Z,99673.80
2023-01-07T19:41:29.935Z,99675.02
2023-01-07T19:44:01.476Z,99678.66
2023-01-07T19:46:29.794Z,99672.14
2023-01-07T19:48:58.200Z,99667.30
2023-01-07T19:51:26.719Z,99662.57
2023-01-07T19:53:55.494Z,99655.66
2023-01-07T19:56:23.798Z,99649.77
2023-01-07T19:58:55.062Z,99650.44
2023-01-07T20:01:28.931Z,99648.00
2023-01-07T20:03:59.232Z,99646.73
2023-01-07T20:06:29.557Z,99647.58
2023-01-07T20:08:58.758Z,99644.05
2023-01-07T20:11:27.195Z,99638.94
2023-01-07T20:13:55.814Z,99637.98
2023-01-07T20:16:25.283Z,99640.30
2023-01-07T20:18:55.636Z,99647.73
2023-01-07T20:21:26.130Z,99644.35
2023-01-07T20:23:55.316Z,99644.89
2023-01-07T20:26:30.357Z,99646.36
2023-01-07T20:29:00.844Z,99644.20
2023-01-07T20:31:31.060Z,99640.64
2023-01-07T20:34:00.629Z,99639.41
2023-01-07T20:36:31.787Z,99638.52
2023-01-07T20:39:05.905Z,99634.19
2023-01-07T20:41:36.058Z,99629.88
2023-01-07T20:44:06.461Z,99625.02
2023-01-07T20:46:35.728Z,99622.55
2023-01-07T20:49:04.010Z,99619.70
2023-01-07T20:51:34.185Z,99618.58
2023-01-07T20:54:09.975Z,99617.73
2023-01-07T20:56:38.353Z,99615.90
2023-01-07T20:59:07.244Z,99613.88
2023-01-07T21:01:35.969Z,99612.61
2023-01-07T21:04:05.307Z,99604.16
2023-01-07T21:06:33.659Z,99606.03
2023-01-07T21:09:02.271Z,99598.79
2023-01-07T21:11:30.986Z,99595.20
2023-01-07T21:13:59.746Z,99588.50
2023-01-07T21:16:29.465Z,99581.80
2023-01-07T21:18:58.773Z,99582.92
2023-01-07T21:21:27.202Z,99581.38
2023-01-07T21:23:56.818Z,99577.98
2023-01-07T21:26:25.529Z,99579.23
2023-01-07T21:28:59.247Z,99574.42
2023-01-07T21:31:28.071Z,99573.55
2023-01-07T21:33:58.139Z,99565.75
2023-01-07T21:36:27.924Z,99560.26
2023-01-07T21:38:58.494Z,99558.06
2023-01-07T21:41:29.165Z,99557.55
2023-01-07T21:43:58.001Z,99560.41
2023-01-07T21:46:28.379Z,99560.09
2023-01-07T21:48:58.002Z,99562.23
2023-01-07T21:51:27.594Z,99558.66
2023-01-07T21:53:57.565Z,99558.91
2023-01-07T21:56:33.035Z,99546.64
2023-01-07T21:59:01.716Z,99543.40
2023-01-07T22:01:30.126Z,99538.07
2023-01-07T22:04:00.157Z,99534.23
2023-01-07T22:06:34.971Z,99532.34
2023-01-07T22:09:07.512Z,99532.50
2023-01-07T22:11:38.797Z,99528.52
2023-01-07T22:14:13.055Z,99526.48
2023-01-07T22:16:42.215Z,99532.23
2023-01-07T22:19:12.272Z,99532.45
2023-01-07T22:21:41.008Z,99534.72
2023-01-07T22:24:10.313Z,99529.52
2023-01-07T22:26:41.361Z,99522.93
2023-01-07T22:29:09.745Z,99513.26
2023-01-07T22:31:38.579Z,99503.06
2023-01-07T22:34:07.975Z,99497.52
2023-01-07T22:36:57.994Z,99492.54
2023-01-07T22:39:50.031Z,99490.39
2023-01-07T22:42:22.827Z,99491.14
2023-01-07T22:44:56.115Z,99491.70
2023-01-07T22:47:29.791Z,99484.33
2023-01-07T22:50:01.969Z,99481.00
2023-01-07T22:52:30.475Z,99475.59
2023-01-07T22:55:00.329Z,99472.60
2023-01-07T22:57:32.083Z,99469.62
2023-01-07T23:00:00.885Z,99465.71
2023-01-07T23:02:29.568Z,99463.92
2023-01-07T23:04:58.489Z,99464.06
2023-01-07T23:07:26.901Z,99453.45
2023-01-07T23:09:55.156Z,99445.30
2023-01-07T23:12:23.531Z,99440.79
2023-01-07T23:14:51.925Z,99432.89
2023-01-07T23:17:20.714Z,99431.89
2023-01-07T23:19:49.013Z,99428.82
2023-01-07T23:22:17.415Z,99424.38
2023-01-07T23:24:46.123Z,99420.95
2023-01-07T23:27:14.990Z,99424.63
2023-01-07T23:29:43.420Z,99425.98
2023-01-07T23:32:12.905Z,99423.96
2023-01-07T23:34:41.755Z,99426.48
2023-01-07T23:37:10.076Z,99429.20
2023-01-07T23:39:38.657Z,99423.29
2023-01-07T23:42:07.085Z,99421.89
2023-01-07T23:44:36.275Z,99415.09
2023-01-07T23:47:05.300Z,99416.08
2023-01-07T23:49:33.786Z,99412.38
2023-01-07T23:52:02.176Z,99410.52
2023-01-07T23:54:30.655Z,99408.67
2023-01-07T23:56:59.338Z,99406.89
2023-01-07T23:59:27.670Z,99407.48
